sensor_id;sensor_type;location;lat;lon;timestamp;P1;durP1;ratioP1;P2;durP2;ratioP2
6007;SDS011;3032;49.484;11.112;2023-03-01T00:00:53;21.38;;;11.52;;
6007;SDS011;3032;49.484;11.112;2023-03-01T00:03:18;18.83;;;10.50;;
6007;SDS011;3032;49.484;11.112;2023-03-01T00:05:44;21.97;;;10.93;;
6007;SDS011;3032;49.484;11.112;2023-03-01T00:08:11;16.30;;;10.55;;
6007;SDS011;3032;49.484;11.112;2023-03-01T00:10:36;15.63;;;10.20;;
6007;SDS011;3032;49.484;11.112;2023-03-01T00:13:02;17.03;;;10.60;;
6007;SDS011;3032;49.484;11.112;2023-03-01T00:15:30;17.98;;;10.55;;
6007;SDS011;3032;49.484;11.112;2023-03-01T00:17:56;16.65;;;10.23;;
6007;SDS011;3032;49.484;11.112;2023-03-01T00:20:22;18.43;;;10.60;;
6007;SDS011;3032;49.484;11.112;2023-03-01T00:22:47;18.47;;;11.27;;
6007;SDS011;3032;49.484;11.112;2023-03-01T00:25:13;15.53;;;10.23;;
6007;SDS011;3032;49.484;11.112;2023-03-01T00:27:38;19.00;;;11.30;;
6007;SDS011;3032;49.484;11.112;2023-03-01T00:30:04;17.90;;;9.07;;
6007;SDS011;3032;49.484;11.112;2023-03-01T00:32:30;18.98;;;11.82;;
6007;SDS011;3032;49.484;11.112;2023-03-01T00:34:56;17.63;;;10.50;;
6007;SDS011;3032;49.484;11.112;2023-03-01T00:37:22;17.10;;;11.17;;
6007;SDS011;3032;49.484;11.112;2023-03-01T00:39:48;18.75;;;10.63;;
6007;SDS011;3032;49.484;11.112;2023-03-01T00:42:14;19.60;;;11.07;;
6007;SDS011;3032;49.484;11.112;2023-03-01T00:44:39;20.57;;;10.13;;
6007;SDS011;3032;49.484;11.112;2023-03-01T00:47:05;19.40;;;12.00;;
6007;SDS011;3032;49.484;11.112;2023-03-01T00:49:31;15.97;;;10.50;;
6007;SDS011;3032;49.484;11.112;2023-03-01T00:51:56;16.70;;;11.77;;
6007;SDS011;3032;49.484;11.112;2023-03-01T00:54:22;20.40;;;11.00;;
6007;SDS011;3032;49.484;11.112;2023-03-01T00:56:47;14.63;;;8.57;;
6007;SDS011;3032;49.484;11.112;2023-03-01T00:59:13;19.77;;;11.00;;
6007;SDS011;3032;49.484;11.112;2023-03-01T01:01:38;20.63;;;12.30;;
6007;SDS011;3032;49.484;11.112;2023-03-01T01:04:08;19.20;;;11.82;;
6007;SDS011;3032;49.484;11.112;2023-03-01T01:06:38;19.40;;;11.85;;
6007;SDS011;3032;49.484;11.112;2023-03-01T01:09:07;19.45;;;11.95;;
6007;SDS011;3032;49.484;11.112;2023-03-01T01:11:34;19.08;;;11.30;;
6007;SDS011;3032;49.484;11.112;2023-03-01T01:14:01;23.20;;;12.05;;
6007;SDS011;3032;49.484;11.112;2023-03-01T01:16:28;18.85;;;11.43;;
6007;SDS011;3032;49.484;11.112;2023-03-01T01:18:55;19.15;;;11.77;;
6007;SDS011;3032;49.484;11.112;2023-03-01T01:21:22;20.88;;;11.55;;
6007;SDS011;3032;49.484;11.112;2023-03-01T01:23:49;19.77;;;10.30;;
6007;SDS011;3032;49.484;11.112;2023-03-01T01:26:17;17.88;;;9.93;;
6007;SDS011;3032;49.484;11.112;2023-03-01T01:28:44;17.42;;;10.80;;
6007;SDS011;3032;49.484;11.112;2023-03-01T01:31:10;17.27;;;10.10;;
6007;SDS011;3032;49.484;11.112;2023-03-01T01:33:36;20.43;;;12.40;;
6007;SDS011;3032;49.484;11.112;2023-03-01T01:36:03;20.75;;;10.88;;
6007;SDS011;3032;49.484;11.112;2023-03-01T01:38:29;18.33;;;10.85;;
6007;SDS011;3032;49.484;11.112;2023-03-01T01:40:55;19.30;;;11.80;;
6007;SDS011;3032;49.484;11.112;2023-03-01T01:43:22;21.53;;;12.33;;
6007;SDS011;3032;49.484;11.112;2023-03-01T01:45:50;17.95;;;10.68;;
6007;SDS011;3032;49.484;11.112;2023-03-01T01:48:20;19.55;;;12.00;;
6007;SDS011;3032;49.484;11.112;2023-03-01T01:50:51;17.95;;;11.30;;
6007;SDS011;3032;49.484;11.112;2023-03-01T01:53:21;19.88;;;11.40;;
6007;SDS011;3032;49.484;11.112;2023-03-01T01:55:50;21.38;;;11.80;;
6007;SDS011;3032;49.484;11.112;2023-03-01T01:58:19;22.90;;;12.70;;
6007;SDS011;3032;49.484;11.112;2023-03-01T02:00:46;22.35;;;12.23;;
6007;SDS011;3032;49.484;11.112;2023-03-01T02:03:14;17.67;;;10.43;;
6007;SDS011;3032;49.484;11.112;2023-03-01T02:05:55;17.80;;;10.63;;
6007;SDS011;3032;49.484;11.112;2023-03-01T02:08:26;20.48;;;11.27;;
6007;SDS011;3032;49.484;11.112;2023-03-01T02:10:55;20.38;;;11.90;;
6007;SDS011;3032;49.484;11.112;2023-03-01T02:13:22;17.35;;;9.90;;
6007;SDS011;3032;49.484;11.112;2023-03-01T02:15:48;18.50;;;10.50;;
6007;SDS011;3032;49.484;11.112;2023-03-01T02:18:15;21.13;;;12.20;;
6007;SDS011;3032;49.484;11.112;2023-03-01T02:23:40;18.63;;;11.65;;
6007;SDS011;3032;49.484;11.112;2023-03-01T02:26:15;21.83;;;11.07;;
6007;SDS011;3032;49.484;11.112;2023-03-01T02:29:15;17.88;;;8.80;;
6007;SDS011;3032;49.484;11.112;2023-03-01T02:31:41;24.73;;;11.60;;
6007;SDS011;3032;49.484;11.112;2023-03-01T02:34:07;22.10;;;11.53;;
6007;SDS011;3032;49.484;11.112;2023-03-01T02:36:39;19.40;;;10.93;;
6007;SDS011;3032;49.484;11.112;2023-03-01T02:39:10;17.83;;;10.63;;
6007;SDS011;3032;49.484;11.112;2023-03-01T02:41:42;18.63;;;11.23;;
6007;SDS011;3032;49.484;11.112;2023-03-01T02:44:12;23.20;;;11.52;;
6007;SDS011;3032;49.484;11.112;2023-03-01T02:46:42;20.60;;;11.23;;
6007;SDS011;3032;49.484;11.112;2023-03-01T02:49:20;18.70;;;10.60;;
6007;SDS011;3032;49.484;11.112;2023-03-01T02:55:03;21.15;;;11.60;;
6007;SDS011;3032;49.484;11.112;2023-03-01T02:57:29;20.30;;;11.60;;
6007;SDS011;3032;49.484;11.112;2023-03-01T02:59:59;17.45;;;10.95;;
6007;SDS011;3032;49.484;11.112;2023-03-01T03:02:31;17.63;;;11.10;;
6007;SDS011;3032;49.484;11.112;2023-03-01T03:05:14;22.02;;;12.07;;
6007;SDS011;3032;49.484;11.112;2023-03-01T03:07:42;19.38;;;12.18;;
6007;SDS011;3032;49.484;11.112;2023-03-01T03:10:11;22.58;;;11.23;;
6007;SDS011;3032;49.484;11.112;2023-03-01T03:12:39;18.95;;;11.80;;
6007;SDS011;3032;49.484;11.112;2023-03-01T03:15:05;20.42;;;11.15;;
6007;SDS011;3032;49.484;11.112;2023-03-01T03:17:36;17.02;;;10.70;;
6007;SDS011;3032;49.484;11.112;2023-03-01T03:20:04;19.73;;;11.73;;
6007;SDS011;3032;49.484;11.112;2023-03-01T03:22:31;18.63;;;12.13;;
6007;SDS011;3032;49.484;11.112;2023-03-01T03:24:59;21.40;;;12.15;;
6007;SDS011;3032;49.484;11.112;2023-03-01T03:27:24;18.00;;;11.20;;
6007;SDS011;3032;49.484;11.112;2023-03-01T03:29:50;18.87;;;11.93;;
6007;SDS011;3032;49.484;11.112;2023-03-01T03:32:15;20.87;;;12.20;;
6007;SDS011;3032;49.484;11.112;2023-03-01T03:34:41;21.77;;;11.60;;
6007;SDS011;3032;49.484;11.112;2023-03-01T03:37:06;20.13;;;11.83;;
6007;SDS011;3032;49.484;11.112;2023-03-01T03:39:52;15.60;;;10.98;;
6007;SDS011;3032;49.484;11.112;2023-03-01T03:42:19;24.90;;;11.35;;
6007;SDS011;3032;49.484;11.112;2023-03-01T03:44:46;19.23;;;11.85;;
6007;SDS011;3032;49.484;11.112;2023-03-01T03:47:12;18.63;;;11.63;;
6007;SDS011;3032;49.484;11.112;2023-03-01T03:49:38;19.63;;;11.48;;
6007;SDS011;3032;49.484;11.112;2023-03-01T03:52:04;20.10;;;12.67;;
6007;SDS011;3032;49.484;11.112;2023-03-01T03:54:29;23.13;;;13.10;;
6007;SDS011;3032;49.484;11.112;2023-03-01T03:56:55;18.30;;;11.37;;
6007;SDS011;3032;49.484;11.112;2023-03-01T03:59:20;17.50;;;11.20;;
6007;SDS011;3032;49.484;11.112;2023-03-01T04:01:46;16.60;;;11.53;;
6007;SDS011;3032;49.484;11.112;2023-03-01T04:04:12;21.00;;;12.37;;
6007;SDS011;3032;49.484;11.112;2023-03-01T04:06:38;20.65;;;12.32;;
6007;SDS011;3032;49.484;11.112;2023-03-01T04:09:03;19.80;;;11.60;;
6007;SDS011;3032;49.484;11.112;2023-03-01T04:11:29;21.10;;;13.67;;
6007;SDS011;3032;49.484;11.112;2023-03-01T04:13:56;18.80;;;11.70;;
6007;SDS011;3032;49.484;11.112;2023-03-01T04:16:23;17.67;;;11.20;;
6007;SDS011;3032;49.484;11.112;2023-03-01T04:18:49;18.45;;;11.90;;
6007;SDS011;3032;49.484;11.112;2023-03-01T04:21:15;16.63;;;10.63;;
6007;SDS011;3032;49.484;11.112;2023-03-01T04:23:40;20.47;;;11.70;;
6007;SDS011;3032;49.484;11.112;2023-03-01T04:26:06;17.27;;;11.80;;
6007;SDS011;3032;49.484;11.112;2023-03-01T04:28:33;16.20;;;10.63;;
6007;SDS011;3032;49.484;11.112;2023-03-01T04:31:05;19.33;;;12.07;;
6007;SDS011;3032;49.484;11.112;2023-03-01T04:33:41;17.60;;;11.20;;
6007;SDS011;3032;49.484;11.112;2023-03-01T04:36:08;18.23;;;11.23;;
6007;SDS011;3032;49.484;11.112;2023-03-01T04:38:35;18.67;;;11.32;;
6007;SDS011;3032;49.484;11.112;2023-03-01T04:41:02;18.70;;;11.40;;
6007;SDS011;3032;49.484;11.112;2023-03-01T04:43:32;20.15;;;11.57;;
6007;SDS011;3032;49.484;11.112;2023-03-01T04:46:02;20.27;;;12.73;;
6007;SDS011;3032;49.484;11.112;2023-03-01T04:48:31;20.27;;;12.93;;
6007;SDS011;3032;49.484;11.112;2023-03-01T04:50:58;17.48;;;11.85;;
6007;SDS011;3032;49.484;11.112;2023-03-01T04:53:24;19.23;;;11.52;;
6007;SDS011;3032;49.484;11.112;2023-03-01T04:55:50;18.77;;;11.20;;
6007;SDS011;3032;49.484;11.112;2023-03-01T04:58:16;21.40;;;12.10;;
6007;SDS011;3032;49.484;11.112;2023-03-01T05:00:41;17.10;;;11.40;;
6007;SDS011;3032;49.484;11.112;2023-03-01T05:03:07;20.60;;;11.70;;
6007;SDS011;3032;49.484;11.112;2023-03-01T05:05:34;19.33;;;11.00;;
6007;SDS011;3032;49.484;11.112;2023-03-01T05:08:03;24.98;;;12.98;;
6007;SDS011;3032;49.484;11.112;2023-03-01T05:10:33;20.17;;;11.77;;
6007;SDS011;3032;49.484;11.112;2023-03-01T05:13:01;20.27;;;12.48;;
6007;SDS011;3032;49.484;11.112;2023-03-01T05:15:28;19.35;;;11.90;;
6007;SDS011;3032;49.484;11.112;2023-03-01T05:17:55;19.80;;;12.57;;
6007;SDS011;3032;49.484;11.112;2023-03-01T05:20:24;20.10;;;12.73;;
6007;SDS011;3032;49.484;11.112;2023-03-01T05:22:51;19.58;;;12.38;;
6007;SDS011;3032;49.484;11.112;2023-03-01T05:25:17;20.63;;;12.43;;
6007;SDS011;3032;49.484;11.112;2023-03-01T05:27:43;19.67;;;12.40;;
6007;SDS011;3032;49.484;11.112;2023-03-01T05:30:09;21.33;;;13.10;;
6007;SDS011;3032;49.484;11.112;2023-03-01T05:32:48;19.98;;;12.05;;
6007;SDS011;3032;49.484;11.112;2023-03-01T05:35:15;21.83;;;12.00;;
6007;SDS011;3032;49.484;11.112;2023-03-01T05:37:42;23.85;;;13.32;;
6007;SDS011;3032;49.484;11.112;2023-03-01T05:40:13;19.42;;;12.60;;
6007;SDS011;3032;49.484;11.112;2023-03-01T05:42:44;21.67;;;12.63;;
6007;SDS011;3032;49.484;11.112;2023-03-01T05:45:11;17.90;;;11.65;;
6007;SDS011;3032;49.484;11.112;2023-03-01T05:47:41;20.77;;;12.65;;
6007;SDS011;3032;49.484;11.112;2023-03-01T05:50:09;20.33;;;12.70;;
6007;SDS011;3032;49.484;11.112;2023-03-01T05:52:36;22.40;;;12.70;;
6007;SDS011;3032;49.484;11.112;2023-03-01T05:55:02;16.60;;;11.87;;
6007;SDS011;3032;49.484;11.112;2023-03-01T05:57:28;23.60;;;12.97;;
6007;SDS011;3032;49.484;11.112;2023-03-01T05:59:54;21.45;;;12.80;;
6007;SDS011;3032;49.484;11.112;2023-03-01T06:02:19;19.53;;;12.93;;
6007;SDS011;3032;49.484;11.112;2023-03-01T06:04:45;21.10;;;13.93;;
6007;SDS011;3032;49.484;11.112;2023-03-01T06:07:10;21.50;;;13.10;;
6007;SDS011;3032;49.484;11.112;2023-03-01T06:09:36;21.80;;;12.93;;
6007;SDS011;3032;49.484;11.112;2023-03-01T06:12:01;22.73;;;13.50;;
6007;SDS011;3032;49.484;11.112;2023-03-01T06:14:27;23.10;;;13.13;;
6007;SDS011;3032;49.484;11.112;2023-03-01T06:16:53;22.70;;;13.13;;
6007;SDS011;3032;49.484;11.112;2023-03-01T06:19:18;22.60;;;12.93;;
6007;SDS011;3032;49.484;11.112;2023-03-01T06:21:44;22.20;;;12.40;;
6007;SDS011;3032;49.484;11.112;2023-03-01T06:24:09;22.67;;;13.20;;
6007;SDS011;3032;49.484;11.112;2023-03-01T06:26:35;24.13;;;13.40;;
6007;SDS011;3032;49.484;11.112;2023-03-01T06:29:00;20.50;;;12.90;;
6007;SDS011;3032;49.484;11.112;2023-03-01T06:31:26;20.30;;;13.10;;
6007;SDS011;3032;49.484;11.112;2023-03-01T06:33:51;25.00;;;13.17;;
6007;SDS011;3032;49.484;11.112;2023-03-01T06:36:17;21.03;;;12.90;;
6007;SDS011;3032;49.484;11.112;2023-03-01T06:38:43;19.08;;;13.23;;
6007;SDS011;3032;49.484;11.112;2023-03-01T06:41:09;21.47;;;14.30;;
6007;SDS011;3032;49.484;11.112;2023-03-01T06:43:35;24.07;;;14.80;;
6007;SDS011;3032;49.484;11.112;2023-03-01T06:46:03;22.00;;;14.90;;
6007;SDS011;3032;49.484;11.112;2023-03-01T06:48:30;23.88;;;15.50;;
6007;SDS011;3032;49.484;11.112;2023-03-01T06:50:57;25.30;;;15.80;;
6007;SDS011;3032;49.484;11.112;2023-03-01T06:53:25;27.83;;;16.05;;
6007;SDS011;3032;49.484;11.112;2023-03-01T06:55:57;55.22;;;18.58;;
6007;SDS011;3032;49.484;11.112;2023-03-01T06:58:25;23.23;;;14.73;;
6007;SDS011;3032;49.484;11.112;2023-03-01T07:00:51;24.20;;;15.75;;
6007;SDS011;3032;49.484;11.112;2023-03-01T07:03:17;23.60;;;15.63;;
6007;SDS011;3032;49.484;11.112;2023-03-01T07:05:43;22.10;;;15.40;;
6007;SDS011;3032;49.484;11.112;2023-03-01T07:08:09;24.90;;;16.60;;
6007;SDS011;3032;49.484;11.112;2023-03-01T07:10:35;24.33;;;15.50;;
6007;SDS011;3032;49.484;11.112;2023-03-01T07:13:01;21.90;;;15.17;;
6007;SDS011;3032;49.484;11.112;2023-03-01T07:15:26;21.00;;;14.63;;
6007;SDS011;3032;49.484;11.112;2023-03-01T07:17:52;25.60;;;15.30;;
6007;SDS011;3032;49.484;11.112;2023-03-01T07:20:18;19.03;;;13.90;;
6007;SDS011;3032;49.484;11.112;2023-03-01T07:22:49;24.20;;;16.17;;
6007;SDS011;3032;49.484;11.112;2023-03-01T07:25:15;20.77;;;14.18;;
6007;SDS011;3032;49.484;11.112;2023-03-01T07:27:41;22.67;;;15.93;;
6007;SDS011;3032;49.484;11.112;2023-03-01T07:30:07;25.42;;;15.80;;
6007;SDS011;3032;49.484;11.112;2023-03-01T07:32:33;22.30;;;15.20;;
6007;SDS011;3032;49.484;11.112;2023-03-01T07:34:59;22.50;;;14.77;;
6007;SDS011;3032;49.484;11.112;2023-03-01T07:37:24;22.80;;;15.50;;
6007;SDS011;3032;49.484;11.112;2023-03-01T07:39:50;23.10;;;14.57;;
6007;SDS011;3032;49.484;11.112;2023-03-01T07:42:15;23.37;;;15.20;;
6007;SDS011;3032;49.484;11.112;2023-03-01T07:44:41;23.20;;;16.30;;
6007;SDS011;3032;49.484;11.112;2023-03-01T07:47:06;21.67;;;14.90;;
6007;SDS011;3032;49.484;11.112;2023-03-01T07:49:32;20.40;;;14.20;;
6007;SDS011;3032;49.484;11.112;2023-03-01T07:51:57;21.73;;;14.43;;
6007;SDS011;3032;49.484;11.112;2023-03-01T07:54:23;19.43;;;14.07;;
6007;SDS011;3032;49.484;11.112;2023-03-01T07:56:49;25.47;;;15.57;;
6007;SDS011;3032;49.484;11.112;2023-03-01T07:59:14;22.17;;;14.60;;
6007;SDS011;3032;49.484;11.112;2023-03-01T08:01:40;21.67;;;14.00;;
6007;SDS011;3032;49.484;11.112;2023-03-01T08:04:07;21.90;;;14.07;;
6007;SDS011;3032;49.484;11.112;2023-03-01T08:06:34;21.58;;;13.35;;
6007;SDS011;3032;49.484;11.112;2023-03-01T08:09:00;23.35;;;14.57;;
6007;SDS011;3032;49.484;11.112;2023-03-01T08:11:26;22.65;;;15.20;;
6007;SDS011;3032;49.484;11.112;2023-03-01T08:13:53;20.38;;;14.50;;
6007;SDS011;3032;49.484;11.112;2023-03-01T08:16:18;20.23;;;13.63;;
6007;SDS011;3032;49.484;11.112;2023-03-01T08:18:44;22.57;;;15.67;;
6007;SDS011;3032;49.484;11.112;2023-03-01T08:21:13;25.13;;;16.30;;
6007;SDS011;3032;49.484;11.112;2023-03-01T08:23:41;20.40;;;14.63;;
6007;SDS011;3032;49.484;11.112;2023-03-01T08:26:08;20.73;;;13.55;;
6007;SDS011;3032;49.484;11.112;2023-03-01T08:28:39;21.88;;;14.68;;
6007;SDS011;3032;49.484;11.112;2023-03-01T08:33:41;24.48;;;15.23;;
6007;SDS011;3032;49.484;11.112;2023-03-01T08:36:06;24.47;;;15.80;;
6007;SDS011;3032;49.484;11.112;2023-03-01T08:38:33;24.53;;;14.93;;
6007;SDS011;3032;49.484;11.112;2023-03-01T08:40:59;19.95;;;14.65;;
6007;SDS011;3032;49.484;11.112;2023-03-01T08:43:26;20.50;;;14.85;;
6007;SDS011;3032;49.484;11.112;2023-03-01T08:45:51;25.33;;;15.30;;
6007;SDS011;3032;49.484;11.112;2023-03-01T08:48:17;19.60;;;14.10;;
6007;SDS011;3032;49.484;11.112;2023-03-01T08:50:42;17.57;;;10.67;;
6007;SDS011;3032;49.484;11.112;2023-03-01T08:53:08;20.83;;;13.80;;
6007;SDS011;3032;49.484;11.112;2023-03-01T08:55:33;21.10;;;14.20;;
6007;SDS011;3032;49.484;11.112;2023-03-01T08:57:59;22.70;;;13.90;;
6007;SDS011;3032;49.484;11.112;2023-03-01T09:00:24;22.17;;;13.97;;
6007;SDS011;3032;49.484;11.112;2023-03-01T09:02:50;20.20;;;12.30;;
6007;SDS011;3032;49.484;11.112;2023-03-01T09:05:16;22.27;;;13.50;;
6007;SDS011;3032;49.484;11.112;2023-03-01T09:07:41;19.07;;;13.87;;
6007;SDS011;3032;49.484;11.112;2023-03-01T09:10:07;21.00;;;14.00;;
6007;SDS011;3032;49.484;11.112;2023-03-01T09:12:33;23.83;;;14.85;;
6007;SDS011;3032;49.484;11.112;2023-03-01T09:14:59;20.10;;;14.60;;
6007;SDS011;3032;49.484;11.112;2023-03-01T09:17:24;22.37;;;16.40;;
6007;SDS011;3032;49.484;11.112;2023-03-01T09:19:50;23.10;;;16.00;;
6007;SDS011;3032;49.484;11.112;2023-03-01T09:22:15;22.20;;;16.17;;
6007;SDS011;3032;49.484;11.112;2023-03-01T09:24:41;20.33;;;15.03;;
6007;SDS011;3032;49.484;11.112;2023-03-01T09:27:06;24.07;;;15.20;;
6007;SDS011;3032;49.484;11.112;2023-03-01T09:29:34;20.92;;;13.10;;
6007;SDS011;3032;49.484;11.112;2023-03-01T09:32:01;21.13;;;14.20;;
6007;SDS011;3032;49.484;11.112;2023-03-01T09:34:26;18.50;;;13.87;;
6007;SDS011;3032;49.484;11.112;2023-03-01T09:36:52;21.63;;;13.33;;
6007;SDS011;3032;49.484;11.112;2023-03-01T09:39:18;20.90;;;15.20;;
6007;SDS011;3032;49.484;11.112;2023-03-01T09:44:47;22.83;;;15.27;;
6007;SDS011;3032;49.484;11.112;2023-03-01T09:47:17;20.67;;;14.90;;
6007;SDS011;3032;49.484;11.112;2023-03-01T09:52:28;22.98;;;17.27;;
6007;SDS011;3032;49.484;11.112;2023-03-01T09:54:57;22.77;;;17.30;;
6007;SDS011;3032;49.484;11.112;2023-03-01T10:03:02;21.63;;;16.10;;
6007;SDS011;3032;49.484;11.112;2023-03-01T10:05:40;20.80;;;16.45;;
6007;SDS011;3032;49.484;11.112;2023-03-01T10:10:47;21.33;;;14.68;;
6007;SDS011;3032;49.484;11.112;2023-03-01T10:13:21;23.95;;;16.23;;
6007;SDS011;3032;49.484;11.112;2023-03-01T10:15:55;20.88;;;16.15;;
6007;SDS011;3032;49.484;11.112;2023-03-01T10:18:26;30.60;;;15.60;;
6007;SDS011;3032;49.484;11.112;2023-03-01T10:21:00;26.05;;;15.13;;
6007;SDS011;3032;49.484;11.112;2023-03-01T10:23:29;20.35;;;14.80;;
6007;SDS011;3032;49.484;11.112;2023-03-01T10:26:08;21.40;;;16.40;;
6007;SDS011;3032;49.484;11.112;2023-03-01T10:29:02;23.52;;;17.45;;
6007;SDS011;3032;49.484;11.112;2023-03-01T10:31:41;19.40;;;16.50;;
6007;SDS011;3032;49.484;11.112;2023-03-01T10:39:54;20.70;;;14.55;;
6007;SDS011;3032;49.484;11.112;2023-03-01T10:42:31;20.75;;;15.68;;
6007;SDS011;3032;49.484;11.112;2023-03-01T10:45:14;25.30;;;17.00;;
6007;SDS011;3032;49.484;11.112;2023-03-01T10:47:42;20.67;;;15.05;;
6007;SDS011;3032;49.484;11.112;2023-03-01T10:50:17;24.67;;;15.80;;
6007;SDS011;3032;49.484;11.112;2023-03-01T10:52:55;19.45;;;15.10;;
6007;SDS011;3032;49.484;11.112;2023-03-01T10:55:27;19.63;;;15.00;;
6007;SDS011;3032;49.484;11.112;2023-03-01T10:58:16;23.50;;;16.52;;
6007;SDS011;3032;49.484;11.112;2023-03-01T11:00:52;21.30;;;16.25;;
6007;SDS011;3032;49.484;11.112;2023-03-01T11:03:27;18.98;;;14.70;;
6007;SDS011;3032;49.484;11.112;2023-03-01T11:06:05;21.77;;;15.52;;
6007;SDS011;3032;49.484;11.112;2023-03-01T11:08:41;20.25;;;15.70;;
6007;SDS011;3032;49.484;11.112;2023-03-01T11:11:13;22.17;;;16.05;;
6007;SDS011;3032;49.484;11.112;2023-03-01T11:16:33;19.27;;;15.52;;
6007;SDS011;3032;49.484;11.112;2023-03-01T11:19:01;22.05;;;14.23;;
6007;SDS011;3032;49.484;11.112;2023-03-01T11:21:27;20.80;;;15.07;;
6007;SDS011;3032;49.484;11.112;2023-03-01T11:23:56;18.08;;;14.18;;
6007;SDS011;3032;49.484;11.112;2023-03-01T11:26:24;21.00;;;13.70;;
6007;SDS011;3032;49.484;11.112;2023-03-01T11:28:51;18.40;;;14.47;;
6007;SDS011;3032;49.484;11.112;2023-03-01T11:31:20;18.52;;;15.23;;
6007;SDS011;3032;49.484;11.112;2023-03-01T11:33:53;17.70;;;14.48;;
6007;SDS011;3032;49.484;11.112;2023-03-01T11:39:21;19.27;;;14.38;;
6007;SDS011;3032;49.484;11.112;2023-03-01T11:41:52;17.58;;;14.05;;
6007;SDS011;3032;49.484;11.112;2023-03-01T11:44:28;21.65;;;15.35;;
6007;SDS011;3032;49.484;11.112;2023-03-01T11:47:12;18.90;;;15.65;;
6007;SDS011;3032;49.484;11.112;2023-03-01T11:50:07;18.33;;;15.27;;
6007;SDS011;3032;49.484;11.112;2023-03-01T11:58:38;18.55;;;14.75;;
6007;SDS011;3032;49.484;11.112;2023-03-01T12:01:12;17.20;;;14.30;;
6007;SDS011;3032;49.484;11.112;2023-03-01T12:04:11;15.57;;;13.15;;
6007;SDS011;3032;49.484;11.112;2023-03-01T12:10:17;18.25;;;13.30;;
6007;SDS011;3032;49.484;11.112;2023-03-01T12:15:51;18.30;;;14.10;;
6007;SDS011;3032;49.484;11.112;2023-03-01T12:18:37;16.90;;;14.30;;
6007;SDS011;3032;49.484;11.112;2023-03-01T12:21:21;17.48;;;14.77;;
6007;SDS011;3032;49.484;11.112;2023-03-01T12:29:16;22.27;;;13.50;;
6007;SDS011;3032;49.484;11.112;2023-03-01T12:38:19;18.20;;;14.57;;
6007;SDS011;3032;49.484;11.112;2023-03-01T12:46:34;16.42;;;12.20;;
6007;SDS011;3032;49.484;11.112;2023-03-01T12:49:12;15.20;;;11.48;;
6007;SDS011;3032;49.484;11.112;2023-03-01T12:51:47;16.15;;;12.85;;
6007;SDS011;3032;49.484;11.112;2023-03-01T12:54:39;16.83;;;12.73;;
6007;SDS011;3032;49.484;11.112;2023-03-01T13:02:58;15.40;;;11.80;;
6007;SDS011;3032;49.484;11.112;2023-03-01T13:08:50;18.00;;;13.55;;
6007;SDS011;3032;49.484;11.112;2023-03-01T13:11:27;17.10;;;12.25;;
6007;SDS011;3032;49.484;11.112;2023-03-01T13:14:18;14.20;;;12.00;;
6007;SDS011;3032;49.484;11.112;2023-03-01T13:16:47;14.45;;;12.95;;
6007;SDS011;3032;49.484;11.112;2023-03-01T13:19:15;16.42;;;13.75;;
6007;SDS011;3032;49.484;11.112;2023-03-01T13:21:43;14.82;;;12.35;;
6007;SDS011;3032;49.484;11.112;2023-03-01T13:29:47;16.45;;;9.93;;
6007;SDS011;3032;49.484;11.112;2023-03-01T13:32:25;13.13;;;10.38;;
6007;SDS011;3032;49.484;11.112;2023-03-01T13:34:57;14.77;;;10.57;;
6007;SDS011;3032;49.484;11.112;2023-03-01T13:37:41;16.15;;;11.65;;
6007;SDS011;3032;49.484;11.112;2023-03-01T13:42:47;12.35;;;9.65;;
6007;SDS011;3032;49.484;11.112;2023-03-01T13:47:59;15.43;;;10.52;;
6007;SDS011;3032;49.484;11.112;2023-03-01T13:50:36;11.45;;;9.45;;
6007;SDS011;3032;49.484;11.112;2023-03-01T13:53:30;17.70;;;11.50;;
6007;SDS011;3032;49.484;11.112;2023-03-01T13:56:00;16.55;;;12.05;;
6007;SDS011;3032;49.484;11.112;2023-03-01T13:58:32;14.40;;;11.25;;
6007;SDS011;3032;49.484;11.112;2023-03-01T14:01:18;16.48;;;12.63;;
6007;SDS011;3032;49.484;11.112;2023-03-01T14:03:56;15.63;;;12.00;;
6007;SDS011;3032;49.484;11.112;2023-03-01T14:06:26;16.50;;;11.88;;
6007;SDS011;3032;49.484;11.112;2023-03-01T14:09:02;14.48;;;10.60;;
6007;SDS011;3032;49.484;11.112;2023-03-01T14:11:55;15.25;;;10.82;;
6007;SDS011;3032;49.484;11.112;2023-03-01T14:14:29;18.83;;;12.82;;
6007;SDS011;3032;49.484;11.112;2023-03-01T14:19:40;15.93;;;11.82;;
6007;SDS011;3032;49.484;11.112;2023-03-01T14:24:39;16.10;;;12.18;;
6007;SDS011;3032;49.484;11.112;2023-03-01T14:27:11;20.02;;;11.95;;
6007;SDS011;3032;49.484;11.112;2023-03-01T14:29:38;18.23;;;11.75;;
6007;SDS011;3032;49.484;11.112;2023-03-01T14:32:21;16.85;;;11.50;;
6007;SDS011;3032;49.484;11.112;2023-03-01T14:34:50;14.57;;;12.98;;
6007;SDS011;3032;49.484;11.112;2023-03-01T14:39:46;18.27;;;13.18;;
6007;SDS011;3032;49.484;11.112;2023-03-01T14:42:12;20.58;;;13.07;;
6007;SDS011;3032;49.484;11.112;2023-03-01T14:44:40;18.67;;;12.25;;
6007;SDS011;3032;49.484;11.112;2023-03-01T14:47:14;13.10;;;9.40;;
6007;SDS011;3032;49.484;11.112;2023-03-01T14:49:44;17.33;;;12.30;;
6007;SDS011;3032;49.484;11.112;2023-03-01T14:52:17;19.95;;;11.82;;
6007;SDS011;3032;49.484;11.112;2023-03-01T14:54:48;14.48;;;10.85;;
6007;SDS011;3032;49.484;11.112;2023-03-01T14:57:26;16.10;;;11.68;;
6007;SDS011;3032;49.484;11.112;2023-03-01T14:59:52;16.77;;;11.45;;
6007;SDS011;3032;49.484;11.112;2023-03-01T15:02:24;15.30;;;11.15;;
6007;SDS011;3032;49.484;11.112;2023-03-01T15:04:55;15.30;;;11.68;;
6007;SDS011;3032;49.484;11.112;2023-03-01T15:07:33;15.80;;;10.23;;
6007;SDS011;3032;49.484;11.112;2023-03-01T15:10:02;14.57;;;8.75;;
6007;SDS011;3032;49.484;11.112;2023-03-01T15:12:41;14.25;;;10.65;;
6007;SDS011;3032;49.484;11.112;2023-03-01T15:17:54;14.60;;;9.52;;
6007;SDS011;3032;49.484;11.112;2023-03-01T15:20:22;14.25;;;10.27;;
6007;SDS011;3032;49.484;11.112;2023-03-01T15:22:54;13.90;;;10.15;;
6007;SDS011;3032;49.484;11.112;2023-03-01T15:25:24;16.90;;;10.95;;
6007;SDS011;3032;49.484;11.112;2023-03-01T15:27:52;12.98;;;9.50;;
6007;SDS011;3032;49.484;11.112;2023-03-01T15:35:57;12.95;;;9.20;;
6007;SDS011;3032;49.484;11.112;2023-03-01T15:40:59;15.90;;;9.93;;
6007;SDS011;3032;49.484;11.112;2023-03-01T15:43:41;11.93;;;7.22;;
6007;SDS011;3032;49.484;11.112;2023-03-01T15:46:18;13.75;;;8.57;;
6007;SDS011;3032;49.484;11.112;2023-03-01T15:48:58;13.30;;;9.63;;
6007;SDS011;3032;49.484;11.112;2023-03-01T15:51:32;16.30;;;9.98;;
6007;SDS011;3032;49.484;11.112;2023-03-01T15:54:04;14.65;;;9.82;;
6007;SDS011;3032;49.484;11.112;2023-03-01T15:56:32;14.38;;;9.43;;
6007;SDS011;3032;49.484;11.112;2023-03-01T15:58:59;12.23;;;8.27;;
6007;SDS011;3032;49.484;11.112;2023-03-01T16:01:25;18.65;;;10.07;;
6007;SDS011;3032;49.484;11.112;2023-03-01T16:03:51;14.13;;;9.45;;
6007;SDS011;3032;49.484;11.112;2023-03-01T16:06:17;15.73;;;10.00;;
6007;SDS011;3032;49.484;11.112;2023-03-01T16:08:42;15.50;;;10.17;;
6007;SDS011;3032;49.484;11.112;2023-03-01T16:11:10;13.10;;;9.60;;
6007;SDS011;3032;49.484;11.112;2023-03-01T16:13:42;13.80;;;9.70;;
6007;SDS011;3032;49.484;11.112;2023-03-01T16:16:09;10.65;;;7.32;;
6007;SDS011;3032;49.484;11.112;2023-03-01T16:18:41;18.23;;;10.07;;
6007;SDS011;3032;49.484;11.112;2023-03-01T16:21:12;12.13;;;9.90;;
6007;SDS011;3032;49.484;11.112;2023-03-01T16:23:44;15.40;;;9.50;;
6007;SDS011;3032;49.484;11.112;2023-03-01T16:26:11;13.38;;;10.20;;
6007;SDS011;3032;49.484;11.112;2023-03-01T16:28:37;14.82;;;11.05;;
6007;SDS011;3032;49.484;11.112;2023-03-01T16:31:04;13.23;;;9.77;;